• Join FlightAware (Why Join?)
  • Login
  • US Flag 
Rudolph Flight #1: Arrived! 
02:22PM EST


 

Airport Tracker/Info


-or-


 

Live Flight TrackerFlight Track Log ✈ RPA3381 ✈ 14-Jul-2014 ✈ KROC - KHSV

Flight Track Log - Related Links

Times and Time Zones

All times are in EDT time to prevent confusion due to time zone crossing. See the RPA3381 flight status page for this flight to view local times or setup timezone preferences in your user account.

Time Position Orientation Groundspeed Altitude Reporting Facility
EDT Latitude Longitude Course Direction KTS MPH feet Rate Location/Type
06:20PM 43.0919 -77.5675 191° South 263 303 4,500  Level Cleveland Center
06:21PM 43.0225 -77.5981 198° South 264 304 8,700 3,540 Climbing Cleveland Center
06:22PM 42.7479 -77.7411 192° South  Level FlightAware Approximate
06:22PM 42.9503 -77.6292 198° South 270 311 12,300  Level Cleveland Center
06:23PM 42.6567 -77.7680 192° South  Level FlightAware Approximate
06:23PM 42.8656 -77.6475 189° South 312 359 15,000  Level Cleveland Center
06:24PM 42.5655 -77.7954 192° South  Level FlightAware Approximate
06:24PM 42.7544 -77.6458 179° South 333 383 16,000  Level Cleveland Center
06:25PM 42.4736 -77.8160 191° South  Level FlightAware Approximate
06:25PM 42.6653 -77.6342 175° South 337 388 17,900  Level Cleveland Center
06:26PM 42.5675 -77.6006 166° South 356 410 20,700 2,520 Climbing Cleveland Center
06:27PM 42.4697 -77.5850 173° South 361 415 23,100 2,340 Climbing Cleveland Center
06:28PM 42.3806 -77.6694 215° Southwest 344 396 25,600 2,220 Climbing Cleveland Center
06:29PM 42.3053 -77.7544 220° Southwest 347 399 27,700 1,800 Climbing Cleveland Center
06:30PM 42.2297 -77.8400 220° Southwest 352 405 29,400 1,440 Climbing Cleveland Center
06:31PM 42.1533 -77.9283 221° Southwest 360 414 30,700 720 Climbing Cleveland Center
06:33PM 42.0753 -78.0203 221° Southwest 371 427 31,000 120 Climbing Cleveland Center
06:34PM 42.0022 -78.1239 227° Southwest 380 437 31,000 240 Level Cleveland Center
06:35PM 41.9183 -78.2386 226° Southwest 386 444 31,500 1,080 Climbing Cleveland Center
06:36PM 41.8453 -78.3417 226° Southwest 386 444 33,300 1,200 Climbing Cleveland Center
06:37PM 41.7739 -78.4383 225° Southwest 375 432 34,000 300 Climbing Cleveland Center
06:38PM 41.6869 -78.5592 226° Southwest 376 433 34,000  Level Cleveland Center
06:39PM 41.6150 -78.6583 226° Southwest 375 432 34,000  Level Cleveland Center
06:40PM 41.5419 -78.7578 226° Southwest 378 435 34,000  Level Cleveland Center
06:41PM 41.4692 -78.8569 226° Southwest 378 435 34,000  Level Cleveland Center
06:42PM 41.3822 -78.9764 226° Southwest 380 437 34,000  Level Cleveland Center
06:43PM 41.3083 -79.0767 226° Southwest 381 438 34,000  Level Cleveland Center
06:44PM 41.2347 -79.1744 225° Southwest 381 438 34,000  Level Cleveland Center
06:45PM 41.1622 -79.2725 226° Southwest 379 436 34,000  Level Cleveland Center
06:46PM 41.0789 -79.3822 225° Southwest 383 441 34,000  Level Cleveland Center
06:47PM 41.0056 -79.4814 226° Southwest 382 440 34,000  Level Cleveland Center
06:48PM 40.9314 -79.5800 225° Southwest 381 438 34,000 60 Level Cleveland Center
06:49PM 40.8578 -79.6786 225° Southwest 380 437 34,200 480 Climbing Cleveland Center
06:50PM 40.7833 -79.7761 225° Southwest 378 435 35,000 840 Climbing Cleveland Center
06:51PM 40.7108 -79.8736 226° Southwest 378 435 36,000 480 Climbing Cleveland Center
06:52PM 40.6214 -79.9906 225° Southwest 378 435 36,000  Level Cleveland Center
06:53PM 40.5456 -80.0917 225° Southwest 376 433 36,000  Level Cleveland Center
06:54PM 40.4700 -80.1889 224° Southwest 378 435 36,000  Level Cleveland Center
06:55PM 40.3950 -80.2853 224° Southwest 379 436 36,000  Level Cleveland Center
06:56PM 40.3119 -80.3944 225° Southwest 384 442 36,000  Level Cleveland Center
06:57PM 40.2372 -80.4900 224° Southwest 381 438 36,000  Level Cleveland Center
06:58PM 40.1617 -80.5875 225° Southwest 381 438 36,000  Level Cleveland Center
06:59PM 40.0861 -80.6842 224° Southwest 380 437 36,000 240 Level Cleveland Center
07:00PM 40.0100 -80.7800 224° Southwest 381 438 36,600 480 Climbing Cleveland Center
07:01PM 39.9336 -80.8789 225° Southwest 384 442 37,000 180 Climbing Cleveland Center
07:02PM 39.8578 -80.9733 224° Southwest 380 437 37,000  Level Cleveland Center
07:03PM 39.7644 -81.0922 224° Southwest 389 448 37,000  Level Cleveland Center
07:04PM 39.6872 -81.1903 224° Southwest 389 448 37,000  Level Cleveland Center
07:05PM 39.6097 -81.2881 224° Southwest 389 448 37,000  Level Cleveland Center
07:06PM 39.5319 -81.3839 224° Southwest 389 448 37,000  Level Cleveland Center
07:08PM 39.4444 -81.4942 224° Southwest 388 447 37,000  Level Cleveland Center
07:09PM 39.3675 -81.5894 224° Southwest 387 445 37,000  Level Cleveland Center
07:10PM 39.2892 -81.6872 224° Southwest 388 447 37,000  Level Cleveland Center
07:11PM 39.2111 -81.7822 223° Southwest 387 445 37,000  Level Cleveland Center
07:12PM 39.1328 -81.8786 224° Southwest 387 445 37,000  Level Cleveland Center
07:13PM 39.0550 -81.9747 224° Southwest 388 447 37,000  Level Cleveland Center
07:14PM 38.9772 -82.0697 224° Southwest 387 445 37,000  Level Cleveland Center
07:15PM 38.8822 -82.1847 223° Southwest 388 447 37,000  Level Cleveland Center
07:16PM 38.8047 -82.2806 224° Southwest 388 447 37,000  Level Cleveland Center
07:17PM 38.6953 -82.4117 223° Southwest 390 449 37,000  Level Indianapolis Center
07:18PM 38.6214 -82.5019 224° Southwest 391 450 37,000  Level Indianapolis Center
07:20PM 38.5129 -82.6027 209° Southwest  Level FlightAware Approximate
07:20PM 38.4236 -82.6661 209° Southwest 397 457 37,000  Level Indianapolis Center
07:21PM 38.3281 -82.7369 210° Southwest 397 457 37,000  Level Indianapolis Center
07:22PM 38.2319 -82.8069 210° Southwest 397 457 37,000 120 Level Indianapolis Center
07:23PM 38.1353 -82.8769 210° Southwest 399 459 37,300 480 Climbing Indianapolis Center
07:24PM 38.0383 -82.9467 210° Southwest 399 459 38,000 300 Climbing Indianapolis Center
07:25PM 37.9411 -83.0192 210° Southwest 399 459 38,000  Level Indianapolis Center
07:26PM 37.8269 -83.1008 209° Southwest 400 460 38,000  Level Indianapolis Center
07:27PM 37.7297 -83.1706 210° Southwest 400 460 38,000  Level Indianapolis Center
07:28PM 37.6322 -83.2386 207° Southwest 400 460 38,000  Level Indianapolis Center
07:29PM 37.6277 -83.2376 207° Southwest  Level FlightAware Approximate
07:29PM 37.5336 -83.3083 209° Southwest 403 464 38,000  Level Indianapolis Center
07:30PM 37.4356 -83.3786 210° Southwest 404 465 38,000  Level Indianapolis Center
07:31PM 37.3375 -83.4486 210° Southwest 404 465 38,000  Level Indianapolis Center
07:32PM 37.2394 -83.5186 210° Southwest 405 466 38,000 -420 Level Indianapolis Center
07:34PM 37.1247 -83.5997 209° Southwest 405 466 37,200 -900 Descending Indianapolis Center
07:35PM 37.0250 -83.6703 209° Southwest 408 470 36,200 -1,020 Descending Indianapolis Center
07:36PM 36.9242 -83.7389 209° Southwest 410 472 35,200 -1,080 Descending Indianapolis Center
07:37PM 36.8231 -83.8100 209° Southwest 413 475 34,100 -1,260 Descending Indianapolis Center
07:38PM 36.7186 -83.8819 209° Southwest 424 488 32,700 -1,500 Descending Indianapolis Center
07:39PM 36.6136 -83.9542 209° Southwest 428 493 31,100 -1,620 Descending Indianapolis Center
07:40PM 36.5128 -84.0317 212° Southwest 428 493 29,500 -1,560 Descending Indianapolis Center
07:41PM 36.4414 -84.1483 233° Southwest 414 476 28,000 -780 Descending Indianapolis Center
07:42PM 36.3700 -84.2542 230° Southwest 405 466 28,000 -540 Level Indianapolis Center
07:43PM 36.2842 -84.3836 231° Southwest 405 466 27,000 -960 Descending Indianapolis Center
07:44PM 36.2136 -84.4886 230° Southwest 401 461 26,100 -900 Descending Indianapolis Center
07:45PM 36.1453 -84.5936 231° Southwest 397 457 25,200 -900 Descending Indianapolis Center
07:46PM 36.0900 -84.6761 230° Southwest 398 458 24,500 -900 Descending Atlanta Center
07:47PM 36.0206 -84.7781 230° Southwest 398 458 23,600 -900 Descending Atlanta Center
07:48PM 35.9533 -84.8800 231° Southwest 398 458 22,700 -960 Descending Atlanta Center
07:49PM 35.8772 -84.9947 231° Southwest 398 458 21,700 -960 Descending Atlanta Center
07:51PM 35.7147 -85.2281 229° Southwest 380 437 19,600 -900 Descending Memphis Center
07:52PM 35.6489 -85.3247 230° Southwest 375 432 18,800 -840 Descending Memphis Center
07:53PM 35.5842 -85.4208 230° Southwest 371 427 17,900 -840 Descending Memphis Center
07:54PM 35.5181 -85.5144 229° Southwest 367 422 17,100 -840 Descending Memphis Center
07:55PM 35.4539 -85.6092 230° Southwest 363 418 16,300 -540 Descending Memphis Center
07:56PM 35.3894 -85.7036 230° Southwest 363 418 16,000 -180 Descending Memphis Center
07:57PM 35.3244 -85.7972 230° Southwest 363 418 16,000  Level Memphis Center
07:58PM 35.2586 -85.8925 230° Southwest 363 418 16,000 -360 Level Memphis Center
07:59PM 35.1933 -85.9869 230° Southwest 364 419 15,300 -900 Descending Memphis Center
08:00PM 35.1144 -86.0994 229° Southwest 364 419 14,200 -1,440 Descending Memphis Center
08:01PM 35.0456 -86.1797 224° Southwest 347 399 12,400 -2,100 Descending Memphis Center
08:02PM 34.9964 -86.2611 234° Southwest 316 364 10,000 -2,700 Descending Memphis Center
08:03PM 34.9469 -86.3311 229° Southwest 280 322 6,900 -2,880 Descending Memphis Center
08:04PM 34.8978 -86.3967 228° Southwest 266 306 4,200 -1,440 Descending Memphis Center
08:05PM 34.8633 -86.4778 243° Southwest 267 307 4,000 -120 Descending Memphis Center
08:06PM 34.8289 -86.5558 242° Southwest 267 307 4,000 -420 Level Memphis Center
08:07PM 34.7964 -86.6336 243° Southwest 265 305 3,200 -600 Descending Memphis Center
08:08PM 34.7697 -86.7300 251° West 256 295 2,800 -660 Descending Memphis Center
08:09PM 34.7194 -86.7819 220° Southwest 243 280 1,900 -840 Descending Memphis Center
08:11PM 34.6781 -86.7828 181° South 182 209 1,100 -540 Descending Memphis Center
08:12PM 34.6456 -86.7831 180° South 158 182 800 -300 Descending Memphis Center
08:14PM 34.6372 -86.7751 231° Southwest  Level Estimated
08:21PM 34.6372 -86.7751 231° Southwest  Level Estimated